Airfield :
LOGIN :

Register | Disclaimer

   EN    FR    IT 

 










Legend :    VFR   Marginal VFR   IFR   Intensive IFR   Very Intensive IFR
Visi :
Ceiling :
>= 8 km
>= 3000ft
5 to 8 km
1000 to 3000 ft
1500m to 5 km
500 to 1000 ft
800 to 1500m
200 to 500 ft
< 800m
< 200 ft
Symbols :   Thunderstorms  Fog  Heavy snow  Heavy precipitations  Wind > 20 kt
SIGMETs :     Misc.  Thunderstorms  Icing  Turbulence  Mountain Waves  Volcanic Ashes






- Airport Elevation : 56 ft
- IATA code : BZR


LFMU - Beziers / Vias

CURRENT METAR :
  • 200800Z AUTO 10013KT CAVOK 23/17 Q1025 NOSIG

EXPIRED METARs :
  • 200730Z AUTO 09015KT 9999 FEW014 23/18 Q1025 NOSIG
  • 200700Z AUTO 08012KT 9999 BKN011 22/19 Q1025 BECMG SCT010
  • 200630Z AUTO 07010KT 9999 OVC011 21/18 Q1025 BECMG SCT010
  • 200600Z AUTO 06011KT 9999 BKN010 19/18 Q1025 TEMPO OVC004
  • 200530Z AUTO 05008KT 9999 BKN009 OVC013 18/17 Q1024 TEMPO OVC004

TAF TAF LFMU
Valid from the 20 at 03:00 until the 21 at 03:00 UTC


200200Z 2003/2103 08010KT 9999 SCT010
PROB40
TEMPO 2003/2008 OVC004
BECMG 2010/2012 CAVOK
BECMG 2019/2021 OVC005
ATIS : +33 4 67 90 88 88



MET'MAP, your aeronautical weather chart ! - Copyright ORBIFLY December 2007 - Disclaimer

ORBIFLY MET'MAP TEAM :

Programming & Development : Alexandra Zaïnal
Original concept : Baudouin d'Aumeries
Technical & hardware support : Manuel Goepfert
Assistance : Marc-Olivier Méhu

Contact : metmap@orbifly.com




SOURCES & CREDITS :

   NOAA